Time;durP1;ratioP1;P1;durP2;ratioP2;P2;SDS_P1;SDS_P2;PMS_P1;PMS_P2;Temp;Humidity;BMP_temperature;BMP_pressure;BME280_temperature;BME280_humidity;BME280_pressure;Samples;Min_cycle;Max_cycle;Signal;HPM_P1;HPM_P2
2023/03/26 00:00:16;;;;;;;13.07;2.80;;;;;;;7.88;100.00;99982.84;698056;28;1302;-61
2023/03/26 00:00:37;;;;;;;13.63;3.17;;;;;;;7.89;100.00;99980.28;695390;28;841;-61
2023/03/26 00:00:59;;;;;;;13.47;3.10;;;;;;;7.89;100.00;99980.28;693317;28;4325;-61
2023/03/26 00:01:22;;;;;;;13.73;2.90;;;;;;;7.84;100.00;99980.28;694677;28;912;-61
2023/03/26 00:01:45;;;;;;;17.02;3.80;;;;;;;7.83;100.00;99978.53;695196;28;863;-61
2023/03/26 00:02:05;;;;;;;12.90;3.42;;;;;;;7.82;100.00;99979.44;694387;28;1069;-61
2023/03/26 00:02:28;;;;;;;13.90;3.20;;;;;;;7.79;100.00;99978.56;695028;28;797;-60
2023/03/26 00:02:48;;;;;;;13.02;3.00;;;;;;;7.79;100.00;99981.16;694095;28;1401;-61
2023/03/26 00:03:13;;;;;;;15.43;3.20;;;;;;;7.83;100.00;99975.94;695762;28;868;-61
2023/03/26 00:03:36;;;;;;;15.68;3.40;;;;;;;7.83;100.00;99973.31;690512;28;1262;-61
2023/03/26 00:03:57;;;;;;;16.60;3.45;;;;;;;7.82;100.00;99975.94;693328;28;4440;-61
2023/03/26 00:04:20;;;;;;;16.10;3.38;;;;;;;7.92;100.00;99979.38;694408;28;861;-60
2023/03/26 00:04:41;;;;;;;14.65;3.22;;;;;;;7.84;100.00;99976.81;694525;28;940;-61
2023/03/26 00:05:01;;;;;;;13.98;3.42;;;;;;;7.91;100.00;99972.44;696871;28;1183;-61
2023/03/26 00:05:22;;;;;;;11.50;3.42;;;;;;;7.84;100.00;99966.41;696968;28;2160;-62
2023/03/26 00:05:47;;;;;;;15.30;3.53;;;;;;;7.82;100.00;99976.81;697919;28;2253;-61
2023/03/26 00:06:11;;;;;;;14.35;3.03;;;;;;;7.79;100.00;99986.38;699065;28;1149;-61
2023/03/26 00:06:38;;;;;;;15.82;3.15;;;;;;;7.89;100.00;99975.06;698714;28;1169;-61
2023/03/26 00:06:58;;;;;;;15.30;3.08;;;;;;;7.86;100.00;99976.81;699438;28;4501;-61
2023/03/26 00:07:20;;;;;;;18.77;3.80;;;;;;;7.86;100.00;99974.19;694518;28;1274;-61
2023/03/26 00:07:41;;;;;;;17.45;3.60;;;;;;;7.81;100.00;99972.47;693320;28;1095;-61
2023/03/26 00:08:07;;;;;;;17.00;3.55;;;;;;;7.77;100.00;99973.38;693057;28;915;-60
2023/03/26 00:08:27;;;;;;;16.10;3.30;;;;;;;7.78;100.00;99974.22;691775;28;1346;-61
2023/03/26 00:08:49;;;;;;;16.17;3.27;;;;;;;7.75;100.00;99969.03;690343;28;892;-61
2023/03/26 00:09:12;;;;;;;15.55;3.65;;;;;;;7.71;100.00;99975.97;695034;28;951;-61
2023/03/26 00:09:32;;;;;;;16.90;3.78;;;;;;;7.77;100.00;99982.94;694876;28;3281;-62
2023/03/26 00:09:52;;;;;;;18.80;3.40;;;;;;;7.72;100.00;99979.47;690384;28;4678;-60
2023/03/26 00:10:14;;;;;;;16.02;3.10;;;;;;;7.75;100.00;99976.84;692135;28;2295;-61
2023/03/26 00:10:36;;;;;;;16.65;3.30;;;;;;;7.71;100.00;99986.38;693543;28;1007;-61
2023/03/26 00:10:57;;;;;;;13.90;3.22;;;;;;;7.64;100.00;99976.88;692580;28;1079;-61
2023/03/26 00:11:19;;;;;;;15.13;3.10;;;;;;;7.75;100.00;99977.69;694554;28;1491;-61
2023/03/26 00:11:41;;;;;;;15.85;3.40;;;;;;;7.72;100.00;99980.31;694428;28;1227;-61
2023/03/26 00:12:02;;;;;;;15.60;3.42;;;;;;;7.69;100.00;99988.16;698801;28;1053;-61
2023/03/26 00:12:22;;;;;;;14.10;3.03;;;;;;;7.65;100.00;99979.47;696931;28;1068;-60
2023/03/26 00:12:43;;;;;;;15.30;3.10;;;;;;;7.64;100.00;99984.69;700080;28;932;-61
2023/03/26 00:13:05;;;;;;;14.83;3.43;;;;;;;7.61;100.00;99976.91;700261;28;4537;-61
2023/03/26 00:13:29;;;;;;;17.58;3.55;;;;;;;7.61;100.00;99980.34;698052;28;1335;-62
2023/03/26 00:13:52;;;;;;;19.05;3.63;;;;;;;7.64;100.00;99980.38;695717;28;979;-61
2023/03/26 00:14:16;;;;;;;15.60;3.40;;;;;;;7.74;100.00;99989.00;697650;28;1154;-60
2023/03/26 00:14:37;;;;;;;17.08;3.15;;;;;;;7.77;100.00;99981.19;693062;28;1390;-60
2023/03/26 00:14:58;;;;;;;18.00;3.25;;;;;;;7.79;100.00;99982.03;693060;28;912;-59
2023/03/26 00:15:18;;;;;;;15.23;3.25;;;;;;;7.81;100.00;99975.09;694326;28;868;-60
2023/03/26 00:15:39;;;;;;;18.60;3.50;;;;;;;7.84;100.00;99975.06;691334;28;862;-60
2023/03/26 00:16:00;;;;;;;16.00;3.45;;;;;;;7.84;100.00;99987.22;690509;28;4278;-61
2023/03/26 00:16:22;;;;;;;17.38;2.97;;;;;;;7.82;100.00;99984.63;691180;28;1302;-60
2023/03/26 00:16:42;;;;;;;17.75;3.38;;;;;;;7.90;100.00;99984.56;692314;28;909;-60
2023/03/26 00:17:07;;;;;;;15.15;3.20;;;;;;;7.92;100.00;99982.84;694318;28;1018;-60
2023/03/26 00:17:30;;;;;;;13.90;3.17;;;;;;;7.88;100.00;99988.06;697662;28;1011;-60
2023/03/26 00:17:52;;;;;;;14.20;3.28;;;;;;;7.87;100.00;99982.00;698672;28;1047;-61
2023/03/26 00:18:18;;;;;;;13.65;3.20;;;;;;;7.88;100.00;99980.25;697678;28;1267;-60
2023/03/26 00:18:43;;;;;;;14.38;2.85;;;;;;;7.93;100.00;99988.91;694819;28;1261;-59
2023/03/26 00:19:08;;;;;;;17.75;3.13;;;;;;;7.91;100.00;99975.91;691724;28;4816;-59
2023/03/26 00:19:32;;;;;;;13.30;3.13;;;;;;;7.94;100.00;99982.84;692285;28;1338;-60
2023/03/26 00:19:58;;;;;;;18.45;3.53;;;;;;;7.89;100.00;99982.00;693083;28;1061;-60
2023/03/26 00:20:19;;;;;;;16.92;3.60;;;;;;;7.94;100.00;99980.25;696707;28;3607;-60
2023/03/26 00:20:40;;;;;;;15.83;3.77;;;;;;;7.89;100.00;99985.47;700739;28;951;-60
2023/03/26 00:21:03;;;;;;;15.10;3.38;;;;;;;7.92;100.00;99990.66;695112;28;1047;-60
2023/03/26 00:21:27;;;;;;;13.80;3.20;;;;;;;7.90;100.00;99975.91;694734;28;932;-60
2023/03/26 00:21:48;;;;;;;17.95;3.50;;;;;;;7.84;100.00;99977.66;693066;28;944;-60
2023/03/26 00:22:12;;;;;;;18.60;3.88;;;;;;;7.81;100.00;99985.50;693098;28;4335;-60
2023/03/26 00:22:32;;;;;;;15.00;3.22;;;;;;;7.89;100.00;99979.38;695449;28;932;-59
2023/03/26 00:22:54;;;;;;;15.07;3.03;;;;;;;7.86;100.00;99975.06;692092;28;1338;-60
2023/03/26 00:23:14;;;;;;;13.38;3.08;;;;;;;7.87;100.00;99981.16;696717;28;900;-59
2023/03/26 00:23:35;;;;;;;15.47;3.33;;;;;;;7.80;100.00;99981.16;695418;28;946;-60
2023/03/26 00:24:03;;;;;;;14.15;3.13;;;;;;;7.82;100.00;99975.94;694388;28;905;-60
2023/03/26 00:24:28;;;;;;;16.35;3.42;;;;;;;7.79;100.00;99982.03;696252;28;1026;-59
2023/03/26 00:24:50;;;;;;;15.05;3.17;;;;;;;7.77;100.00;99983.78;695282;28;1629;-59
2023/03/26 00:25:10;;;;;;;14.68;3.00;;;;;;;7.74;100.00;99983.78;696064;28;4608;-60
2023/03/26 00:25:30;;;;;;;15.77;3.17;;;;;;;7.73;100.00;99979.47;694860;28;2019;-60
2023/03/26 00:25:52;;;;;;;17.23;3.50;;;;;;;7.80;100.00;99983.75;693459;28;1159;-60
2023/03/26 00:26:12;;;;;;;17.75;3.30;;;;;;;7.79;100.00;99975.97;693048;28;1385;-61
2023/03/26 00:26:34;;;;;;;18.73;3.50;;;;;;;7.74;100.00;99982.91;689932;28;1011;-60
2023/03/26 00:26:54;;;;;;;15.98;3.40;;;;;;;7.73;100.00;99989.00;691253;28;896;-60
2023/03/26 00:27:16;;;;;;;16.30;3.67;;;;;;;7.69;100.00;99982.94;690630;28;1329;-60
2023/03/26 00:27:37;;;;;;;18.75;3.42;;;;;;;7.72;100.00;99987.28;689956;28;825;-61
2023/03/26 00:27:57;;;;;;;16.55;3.08;;;;;;;7.71;100.00;99977.72;689157;28;4608;-60
2023/03/26 00:28:21;;;;;;;16.80;3.37;;;;;;;7.72;100.00;99972.50;685356;28;782;-61
2023/03/26 00:28:42;;;;;;;16.80;3.38;;;;;;;7.73;100.00;99976.00;684712;28;1869;-61
2023/03/26 00:29:05;;;;;;;17.13;3.17;;;;;;;7.71;100.00;99975.97;684238;28;1126;-60
2023/03/26 00:29:26;;;;;;;14.07;3.05;;;;;;;7.67;100.00;99979.50;687298;28;1564;-60
2023/03/26 00:29:47;;;;;;;17.55;3.17;;;;;;;7.65;100.00;99973.41;688074;28;1040;-61
2023/03/26 00:30:08;;;;;;;17.83;3.37;;;;;;;7.76;100.00;99971.63;691674;28;821;-60
2023/03/26 00:30:28;;;;;;;18.38;2.92;;;;;;;7.77;100.00;99978.56;692425;28;794;-60
2023/03/26 00:30:55;;;;;;;19.20;3.30;;;;;;;7.79;100.00;99981.16;693060;28;872;-60
2023/03/26 00:31:18;;;;;;;13.25;2.97;;;;;;;7.87;100.00;99978.53;693314;28;4712;-61
2023/03/26 00:31:39;;;;;;;14.50;3.00;;;;;;;7.84;100.00;99979.41;696147;28;1344;-60
2023/03/26 00:32:00;;;;;;;17.13;3.20;;;;;;;7.80;100.00;99975.94;694744;28;1161;-61
2023/03/26 00:32:22;;;;;;;19.40;3.35;;;;;;;7.80;100.00;99973.34;693525;28;813;-61
2023/03/26 00:32:43;;;;;;;16.02;3.38;;;;;;;7.74;100.00;99970.78;695200;28;1517;-60
2023/03/26 00:33:03;;;;;;;17.95;4.00;;;;;;;7.75;100.00;99972.50;695204;28;1528;-60
2023/03/26 00:33:24;;;;;;;17.33;3.50;;;;;;;7.76;100.00;99971.63;694620;28;1318;-60
2023/03/26 00:33:44;;;;;;;16.47;3.33;;;;;;;7.78;100.00;99972.50;690252;28;944;-60
2023/03/26 00:34:05;;;;;;;16.25;3.10;;;;;;;7.79;100.00;99975.97;689774;28;4579;-60
2023/03/26 00:34:26;;;;;;;16.10;3.20;;;;;;;7.76;100.00;99974.22;689735;28;848;-61
2023/03/26 00:34:46;;;;;;;17.60;4.20;;;;;;;7.87;100.00;99970.72;686499;28;1063;-61
2023/03/26 00:35:07;;;;;;;19.70;3.97;;;;;;;7.87;100.00;99968.97;689778;28;791;-60
2023/03/26 00:35:28;;;;;;;15.60;3.13;;;;;;;7.84;100.00;99975.06;690721;28;935;-60
2023/03/26 00:35:53;;;;;;;16.60;3.08;;;;;;;7.82;100.00;99973.34;694650;28;2127;-60
2023/03/26 00:36:18;;;;;;;17.50;3.20;;;;;;;7.81;100.00;99977.69;692375;28;991;-63
2023/03/26 00:36:41;;;;;;;18.27;3.17;;;;;;;7.89;100.00;99974.19;691880;28;1232;-59
2023/03/26 00:37:04;;;;;;;13.63;3.10;;;;;;;7.87;100.00;99965.53;689659;28;4610;-59
2023/03/26 00:37:25;;;;;;;16.73;3.15;;;;;;;7.84;100.00;99969.84;690310;28;1202;-60
2023/03/26 00:37:45;;;;;;;20.25;3.65;;;;;;;7.93;100.00;99968.09;689644;28;1023;-60
2023/03/26 00:38:06;;;;;;;15.20;3.17;;;;;;;7.89;100.00;99964.66;692980;28;766;-60
2023/03/26 00:38:30;;;;;;;16.52;3.30;;;;;;;7.89;100.00;99963.78;693704;28;1023;-60
2023/03/26 00:38:52;;;;;;;15.32;3.17;;;;;;;7.83;100.00;99968.13;692739;28;4850;-61
2023/03/26 00:39:13;;;;;;;17.13;3.40;;;;;;;7.82;100.00;99969.03;692460;28;1435;-60
2023/03/26 00:39:36;;;;;;;18.08;4.10;;;;;;;7.84;100.00;99967.25;692594;28;823;-60
2023/03/26 00:40:05;;;;;;;14.95;3.40;;;;;;;7.81;100.00;99969.03;690820;28;4393;-60
2023/03/26 00:40:26;;;;;;;14.23;3.30;;;;;;;7.83;100.00;99968.13;690448;28;1353;-60
2023/03/26 00:40:49;;;;;;;18.45;3.55;;;;;;;7.84;100.00;99963.81;688276;28;1414;-60
2023/03/26 00:41:25;;;;;;;18.40;3.42;;;;;;;7.82;100.00;99966.41;685204;28;845;-61
2023/03/26 00:41:46;;;;;;;14.63;3.10;;;;;;;7.90;100.00;99957.69;689533;28;1117;-61
2023/03/26 00:42:07;;;;;;;16.30;3.67;;;;;;;7.89;100.00;99961.16;690993;28;1318;-60
2023/03/26 00:42:28;;;;;;;16.27;3.20;;;;;;;7.92;100.00;99950.72;698118;28;852;-61
2023/03/26 00:42:48;;;;;;;17.40;3.45;;;;;;;7.94;100.00;99959.41;693175;28;996;-60
2023/03/26 00:43:17;;;;;;;20.63;3.80;;;;;;;7.95;100.00;99961.16;690865;28;4345;-60
2023/03/26 00:43:38;;;;;;;12.02;3.30;;;;;;;7.95;100.00;99950.75;693147;28;2240;-61
2023/03/26 00:43:59;;;;;;;15.77;3.33;;;;;;;7.93;100.00;99955.06;688595;28;1485;-60
2023/03/26 00:44:20;;;;;;;17.83;3.72;;;;;;;7.87;100.00;99966.38;685867;28;1119;-61
2023/03/26 00:44:42;;;;;;;18.08;4.25;;;;;;;7.80;100.00;99968.16;691220;28;912;-60
2023/03/26 00:45:06;;;;;;;17.27;3.83;;;;;;;7.76;100.00;99966.44;691736;28;1018;-61
2023/03/26 00:45:26;;;;;;;13.93;3.30;;;;;;;7.73;100.00;99963.84;694330;28;1376;-61
2023/03/26 00:45:56;;;;;;;14.00;3.47;;;;;;;7.78;100.00;99963.81;694128;28;1913;-61
2023/03/26 00:46:16;;;;;;;16.58;3.90;;;;;;;7.74;100.00;99962.97;694353;28;4956;-60
2023/03/26 00:46:37;;;;;;;15.40;3.28;;;;;;;7.82;100.00;99963.81;691848;28;1281;-60
2023/03/26 00:46:58;;;;;;;14.23;2.83;;;;;;;7.82;100.00;99966.41;691540;28;1056;-60
2023/03/26 00:47:18;;;;;;;16.63;3.17;;;;;;;7.82;100.00;99960.31;689407;28;915;-61
2023/03/26 00:47:39;;;;;;;16.23;3.50;;;;;;;7.83;100.00;99965.53;690751;28;987;-60
2023/03/26 00:47:59;;;;;;;16.08;3.53;;;;;;;7.84;100.00;99966.41;691326;28;1190;-60
2023/03/26 00:48:21;;;;;;;18.30;3.73;;;;;;;7.81;100.00;99969.88;692277;28;1053;-60
2023/03/26 00:48:43;;;;;;;15.73;3.40;;;;;;;7.77;100.00;99965.56;695577;28;1314;-60
2023/03/26 00:49:04;;;;;;;18.15;3.60;;;;;;;7.78;100.00;99967.31;689444;28;4390;-60
2023/03/26 00:49:25;;;;;;;17.20;3.92;;;;;;;7.79;100.00;99965.56;688347;28;935;-61
2023/03/26 00:49:47;;;;;;;14.73;3.20;;;;;;;7.81;100.00;99969.88;683472;28;1494;-60
2023/03/26 00:50:14;;;;;;;18.40;4.07;;;;;;;7.80;100.00;99962.94;688904;28;2337;-61
2023/03/26 00:50:35;;;;;;;18.50;3.30;;;;;;;7.82;100.00;99960.31;689818;28;962;-60
2023/03/26 00:50:57;;;;;;;18.60;3.43;;;;;;;7.76;100.00;99960.38;688151;28;980;-60
2023/03/26 00:51:19;;;;;;;15.23;3.40;;;;;;;7.72;100.00;99964.72;689790;28;850;-60
2023/03/26 00:51:40;;;;;;;15.90;3.40;;;;;;;7.76;100.00;99960.38;693510;28;1188;-60
2023/03/26 00:52:02;;;;;;;16.90;3.13;;;;;;;7.73;100.00;99957.78;692069;28;4378;-60
2023/03/26 00:52:23;;;;;;;17.23;3.88;;;;;;;7.71;100.00;99964.72;691608;28;940;-60
2023/03/26 00:52:45;;;;;;;16.45;3.30;;;;;;;7.76;100.00;99963.81;692604;28;889;-60
2023/03/26 00:53:12;;;;;;;15.20;3.50;;;;;;;7.88;100.00;99956.81;692232;28;896;-60
2023/03/26 00:53:37;;;;;;;13.85;2.90;;;;;;;7.94;100.00;99959.41;692448;28;1191;-61
2023/03/26 00:53:58;;;;;;;15.57;3.67;;;;;;;7.86;100.00;99966.41;686992;28;1358;-60
2023/03/26 00:54:19;;;;;;;14.45;3.33;;;;;;;7.88;100.00;99962.03;689926;28;1663;-60
2023/03/26 00:54:39;;;;;;;18.10;3.73;;;;;;;7.91;100.00;99949.88;688364;28;1165;-59
2023/03/26 00:55:00;;;;;;;17.63;3.53;;;;;;;7.84;100.00;99953.41;691477;28;4368;-60
2023/03/26 00:55:22;;;;;;;18.00;3.20;;;;;;;7.84;100.00;99953.41;691291;28;951;-60
2023/03/26 00:55:44;;;;;;;13.35;2.97;;;;;;;7.79;100.00;99958.59;688838;28;1207;-60
2023/03/26 00:56:05;;;;;;;15.40;2.90;;;;;;;7.86;100.00;99954.25;690851;28;2319;-60
2023/03/26 00:56:26;;;;;;;13.50;3.03;;;;;;;7.80;100.00;99955.13;692669;28;1171;-60
2023/03/26 00:56:46;;;;;;;16.35;3.30;;;;;;;7.78;100.00;99956.91;694295;28;1305;-60
2023/03/26 00:57:09;;;;;;;21.80;3.97;;;;;;;7.76;100.00;99957.78;691650;28;1262;-60
2023/03/26 00:57:30;;;;;;;16.65;3.70;;;;;;;7.73;100.00;99961.25;693040;28;2059;-60
2023/03/26 00:57:50;;;;;;;16.25;3.50;;;;;;;7.71;100.00;99949.09;692748;28;4627;-60
2023/03/26 00:58:12;;;;;;;15.85;3.10;;;;;;;7.66;100.00;99960.41;697576;28;1249;-60
2023/03/26 00:58:36;;;;;;;16.17;3.35;;;;;;;7.69;100.00;99963.88;697360;28;892;-60
2023/03/26 00:58:59;;;;;;;14.55;2.95;;;;;;;7.67;100.00;99956.09;698324;28;848;-60
2023/03/26 00:59:21;;;;;;;17.48;3.30;;;;;;;7.66;100.00;99952.59;699116;28;1003;-60
2023/03/26 00:59:42;;;;;;;15.85;3.10;;;;;;;7.67;100.00;99958.69;696273;28;734;-60
2023/03/26 01:00:05;;;;;;;15.30;3.07;;;;;;;7.69;100.00;99953.47;696134;28;1060;-60
2023/03/26 01:00:33;;;;;;;14.80;3.33;;;;;;;7.75;100.00;99958.63;693286;28;1015;-60
2023/03/26 01:00:59;;;;;;;18.33;3.40;;;;;;;7.77;100.00;99957.75;694027;28;4331;-62
2023/03/26 01:01:26;;;;;;;18.17;3.10;;;;;;;7.93;100.00;99948.13;695493;28;1298;-60
2023/03/26 01:01:46;;;;;;;15.13;2.85;;;;;;;7.91;100.00;99949.03;698295;28;935;-58
2023/03/26 01:02:10;;;;;;;13.98;3.33;;;;;;;7.98;100.00;99948.97;697968;28;1095;-60
2023/03/26 01:02:31;;;;;;;15.02;3.10;;;;;;;7.93;100.00;99948.13;696931;28;888;-60
2023/03/26 01:02:54;;;;;;;15.32;3.35;;;;;;;7.93;100.00;99952.47;697229;28;975;-61
2023/03/26 01:03:17;;;;;;;16.23;3.35;;;;;;;7.96;100.00;99947.25;697063;28;1467;-60
2023/03/26 01:03:38;;;;;;;17.60;3.50;;;;;;;7.93;100.00;99949.88;693779;28;1375;-60
2023/03/26 01:04:22;;;;;;;17.45;3.47;;;;;;;7.91;100.00;99946.44;693420;28;4355;-60
2023/03/26 01:04:47;;;;;;;17.65;3.38;;;;;;;7.83;100.00;99936.03;694644;28;1365;-60
2023/03/26 01:05:35;;;;;;;15.52;3.15;;;;;;;7.92;100.00;99938.59;692803;28;881;-61
2023/03/26 01:06:06;;;;;;;16.88;3.70;;;;;;;7.82;100.00;99945.59;692868;28;1058;-60
2023/03/26 01:06:34;;;;;;;14.95;3.10;;;;;;;7.79;100.00;99943.00;694372;28;1444;-59
2023/03/26 01:07:10;;;;;;;14.77;3.60;;;;;;;7.78;100.00;99938.69;695228;28;4517;-60
2023/03/26 01:07:31;;;;;;;17.40;3.55;;;;;;;7.77;100.00;99946.50;700726;28;994;-60
2023/03/26 01:07:54;;;;;;;15.10;3.22;;;;;;;7.75;100.00;99933.47;697074;28;1134;-59
2023/03/26 01:08:19;;;;;;;13.38;2.75;;;;;;;7.76;100.00;99934.34;698279;28;856;-59
2023/03/26 01:08:48;;;;;;;14.85;3.08;;;;;;;7.84;100.00;99932.56;693125;28;1178;-61
2023/03/26 01:09:17;;;;;;;14.25;3.03;;;;;;;7.81;100.00;99937.81;692940;28;1019;-59
2023/03/26 01:09:44;;;;;;;17.77;3.55;;;;;;;7.91;100.00;99936.00;692899;28;1219;-60
2023/03/26 01:10:04;;;;;;;18.85;3.50;;;;;;;7.92;100.00;99930.78;692442;28;4361;-60
2023/03/26 01:10:25;;;;;;;16.50;3.22;;;;;;;7.93;100.00;99931.66;692923;28;979;-61
2023/03/26 01:10:49;;;;;;;17.13;3.20;;;;;;;7.97;100.00;99929.00;690640;28;1279;-60
2023/03/26 01:11:28;;;;;;;16.00;3.08;;;;;;;8.07;100.00;99932.44;687406;28;1382;-61
2023/03/26 01:11:49;;;;;;;15.63;3.15;;;;;;;8.07;100.00;99931.56;687189;28;2542;-60
2023/03/26 01:12:17;;;;;;;13.55;3.17;;;;;;;8.07;100.00;99929.84;689929;28;1467;-60
2023/03/26 01:12:37;;;;;;;17.30;3.58;;;;;;;8.11;100.00;99926.34;690002;28;1808;-60
2023/03/26 01:12:57;;;;;;;15.55;3.20;;;;;;;8.05;100.00;99931.56;687081;28;4427;-59
2023/03/26 01:13:28;;;;;;;13.57;2.90;;;;;;;8.01;100.00;99924.66;686002;28;845;-59
2023/03/26 01:13:59;;;;;;;16.77;3.17;;;;;;;8.05;100.00;99921.16;689950;28;2124;-60
2023/03/26 01:14:23;;;;;;;17.73;3.33;;;;;;;8.06;100.00;99925.50;688346;28;1429;-60
2023/03/26 01:14:46;;;;;;;15.40;3.15;;;;;;;7.99;100.00;99924.69;687977;28;1230;-60
2023/03/26 01:15:08;;;;;;;16.25;3.47;;;;;;;7.98;100.00;99920.34;685569;28;1348;-59
2023/03/26 01:15:29;;;;;;;17.40;3.17;;;;;;;8.06;100.00;99919.41;686407;28;830;-61
2023/03/26 01:15:51;;;;;;;16.38;3.40;;;;;;;8.05;100.00;99918.56;687117;28;1194;-60
2023/03/26 01:16:21;;;;;;;14.82;3.08;;;;;;;8.06;100.00;99920.31;691186;28;4782;-60
2023/03/26 01:16:53;;;;;;;15.07;3.22;;;;;;;8.05;100.00;99915.09;694459;28;1077;-60
2023/03/26 01:17:14;;;;;;;18.83;3.20;;;;;;;7.96;100.00;99916.91;696159;28;1050;-60
2023/03/26 01:17:36;;;;;;;16.23;3.30;;;;;;;7.94;100.00;99912.56;696076;28;790;-60
2023/03/26 01:17:57;;;;;;;17.52;3.65;;;;;;;7.90;100.00;99911.72;696942;28;1083;-60
2023/03/26 01:18:25;;;;;;;16.67;3.22;;;;;;;7.93;100.00;99916.88;696835;28;891;-60
2023/03/26 01:18:47;;;;;;;13.60;3.20;;;;;;;7.97;100.00;99912.53;696730;28;1155;-60
2023/03/26 01:19:47;;;;;;;14.65;3.45;;;;;;;7.91;100.00;99913.44;695761;28;4723;-60
2023/03/26 01:20:25;;;;;;;18.80;3.38;;;;;;;7.87;100.00;99910.88;695436;28;1075;-59
2023/03/26 01:21:03;;;;;;;17.90;3.10;;;;;;;7.86;100.00;99914.34;693991;28;1233;-60
2023/03/26 01:21:28;;;;;;;13.73;2.83;;;;;;;7.93;100.00;99910.81;694109;28;944;-60
2023/03/26 01:21:49;;;;;;;13.23;2.60;;;;;;;7.94;100.00;99904.75;695144;28;919;-60
2023/03/26 01:22:16;;;;;;;15.73;2.87;;;;;;;7.99;100.00;99903.00;695883;28;4309;-60
2023/03/26 01:22:44;;;;;;;15.80;3.15;;;;;;;7.92;100.00;99904.78;689798;28;1314;-59
2023/03/26 01:23:06;;;;;;;14.65;3.30;;;;;;;7.86;100.00;99901.34;691961;28;1295;-59
2023/03/26 01:23:38;;;;;;;16.70;3.95;;;;;;;7.82;100.00;99898.75;692234;28;916;-59
2023/03/26 01:24:06;;;;;;;16.00;3.40;;;;;;;7.77;100.00;99916.13;691054;28;1074;-59
2023/03/26 01:24:27;;;;;;;18.08;3.33;;;;;;;7.83;100.00;99899.63;691060;28;1271;-59
2023/03/26 01:24:55;;;;;;;16.40;2.70;;;;;;;7.82;100.00;99897.88;692895;28;1140;-59
2023/03/26 01:25:19;;;;;;;13.60;2.75;;;;;;;7.76;100.00;99901.38;691378;28;4679;-59
2023/03/26 01:25:48;;;;;;;15.13;2.83;;;;;;;7.69;100.00;99898.84;690112;28;1926;-60
2023/03/26 01:26:35;;;;;;;18.00;3.47;;;;;;;7.67;100.00;99901.44;690666;28;844;-59
2023/03/26 01:27:10;;;;;;;14.73;3.15;;;;;;;7.59;100.00;99896.28;686577;28;1463;-59
2023/03/26 01:27:40;;;;;;;15.82;3.30;;;;;;;7.64;100.00;99898.84;686974;28;957;-59
2023/03/26 01:28:04;;;;;;;12.15;2.45;;;;;;;7.57;100.00;99913.59;688368;28;4377;-60
2023/03/26 01:28:30;;;;;;;12.98;2.67;;;;;;;7.50;100.00;99897.19;690553;28;856;-60
2023/03/26 01:28:56;;;;;;;15.88;3.65;;;;;;;7.54;100.00;99897.16;695146;28;1434;-59
2023/03/26 01:29:44;;;;;;;17.05;3.28;;;;;;;7.52;100.00;99898.91;697946;28;911;-60
2023/03/26 01:30:32;;;;;;;14.05;2.97;;;;;;;7.43;100.00;99902.41;700168;28;1202;-60
2023/03/26 01:31:08;;;;;;;21.45;3.80;;;;;;;7.46;100.00;99900.69;694975;28;4515;-60
2023/03/26 01:31:38;;;;;;;18.38;3.40;;;;;;;7.58;100.00;99898.88;697293;28;1398;-59
2023/03/26 01:32:18;;;;;;;14.65;3.25;;;;;;;7.61;100.00;99891.91;695941;28;896;-60
2023/03/26 01:32:54;;;;;;;16.48;3.28;;;;;;;7.45;100.00;99898.09;697607;28;1403;-59
2023/03/26 01:33:28;;;;;;;11.13;2.80;;;;;;;7.39;100.00;99906.75;693566;28;1262;-59
2023/03/26 01:34:01;;;;;;;15.40;2.97;;;;;;;7.41;100.00;99898.97;696260;28;899;-59
2023/03/26 01:34:29;;;;;;;16.90;3.60;;;;;;;7.39;100.00;99898.09;695029;28;5021;-59
2023/03/26 01:34:56;;;;;;;16.40;3.28;;;;;;;7.35;100.00;99898.97;695239;28;1045;-60
2023/03/26 01:35:44;;;;;;;13.30;3.20;;;;;;;7.33;100.00;99901.59;694894;28;1180;-60
2023/03/26 01:36:24;;;;;;;14.75;3.30;;;;;;;7.30;100.00;99893.81;691652;28;1641;-60
2023/03/26 01:37:04;;;;;;;16.38;3.20;;;;;;;7.26;100.00;99894.69;693051;28;1035;-60
2023/03/26 01:37:39;;;;;;;18.02;3.28;;;;;;;7.23;100.00;99890.34;696608;28;4784;-60
2023/03/26 01:38:13;;;;;;;18.45;3.75;;;;;;;7.18;100.00;99899.91;695971;28;1413;-60
2023/03/26 01:39:00;;;;;;;20.00;3.72;;;;;;;7.28;100.00;99895.53;695444;28;965;-60
2023/03/26 01:39:30;;;;;;;19.58;3.35;;;;;;;7.24;100.00;99896.41;689757;28;1888;-60
2023/03/26 01:40:04;;;;;;;18.15;3.30;;;;;;;7.22;100.00;99892.97;693743;28;5335;-59
2023/03/26 01:40:37;;;;;;;14.90;3.17;;;;;;;7.27;100.00;99893.78;698364;28;1385;-60
2023/03/26 01:41:13;;;;;;;16.63;3.10;;;;;;;7.33;100.00;99889.44;695939;28;932;-60
2023/03/26 01:41:41;;;;;;;16.15;3.40;;;;;;;7.29;100.00;99894.66;694628;28;901;-60
2023/03/26 01:42:10;;;;;;;14.40;3.28;;;;;;;7.24;100.00;99891.22;696167;28;1196;-60
2023/03/26 01:42:42;;;;;;;16.25;3.42;;;;;;;7.21;100.00;99883.44;696150;28;1446;-60
2023/03/26 01:43:11;;;;;;;14.13;3.10;;;;;;;7.19;100.00;99885.19;693375;28;4500;-60
2023/03/26 01:43:42;;;;;;;18.45;3.33;;;;;;;7.23;100.00;99881.72;694181;28;1643;-60
2023/03/26 01:44:10;;;;;;;14.85;3.03;;;;;;;7.23;100.00;99886.91;694282;28;1614;-60
2023/03/26 01:44:43;;;;;;;14.20;3.22;;;;;;;7.18;100.00;99888.66;697425;28;1095;-61
2023/03/26 01:45:30;;;;;;;13.18;3.13;;;;;;;7.19;100.00;99883.44;692462;28;1321;-60
2023/03/26 01:45:51;;;;;;;13.85;2.78;;;;;;;7.20;100.00;99884.28;691205;28;4409;-59
2023/03/26 01:46:16;;;;;;;15.60;3.20;;;;;;;7.18;100.00;99884.28;697323;28;935;-60
2023/03/26 01:46:38;;;;;;;15.75;3.20;;;;;;;7.14;100.00;99880.88;696560;28;928;-60
2023/03/26 01:47:00;;;;;;;17.42;3.42;;;;;;;7.21;100.00;99879.09;694403;28;1318;-60
2023/03/26 01:47:21;;;;;;;13.15;2.75;;;;;;;7.19;100.00;99879.97;694924;28;1562;-60
2023/03/26 01:47:42;;;;;;;15.23;2.88;;;;;;;7.23;100.00;99877.34;693767;28;916;-60
2023/03/26 01:48:05;;;;;;;18.48;3.40;;;;;;;7.22;100.00;99879.97;693469;28;943;-60
2023/03/26 01:48:39;;;;;;;17.85;3.20;;;;;;;7.18;100.00;99878.25;694844;28;1968;-60
2023/03/26 01:49:00;;;;;;;13.95;3.30;;;;;;;7.14;100.00;99878.25;694790;28;4497;-60
2023/03/26 01:49:21;;;;;;;17.50;3.42;;;;;;;7.14;100.00;99878.25;690469;28;996;-60
2023/03/26 01:49:44;;;;;;;15.13;3.00;;;;;;;7.19;100.00;99875.63;692188;28;785;-60
2023/03/26 01:50:06;;;;;;;16.23;3.13;;;;;;;7.18;100.00;99876.50;692458;28;971;-60
2023/03/26 01:50:26;;;;;;;15.80;3.30;;;;;;;7.17;100.00;99877.34;695126;28;1200;-60
2023/03/26 01:50:50;;;;;;;16.95;3.47;;;;;;;7.15;100.00;99874.78;694632;28;821;-60
2023/03/26 01:51:12;;;;;;;15.45;2.83;;;;;;;7.16;100.00;99868.72;696412;28;840;-60
2023/03/26 01:51:34;;;;;;;15.88;3.05;;;;;;;7.14;100.00;99864.38;699566;28;966;-60
2023/03/26 01:51:58;;;;;;;14.63;3.30;;;;;;;7.20;100.00;99877.38;693619;28;4336;-60
2023/03/26 01:52:23;;;;;;;14.35;3.17;;;;;;;7.27;100.00;99866.06;690692;28;838;-60
2023/03/26 01:52:44;;;;;;;15.45;3.70;;;;;;;7.24;100.00;99867.81;690396;28;1115;-60
2023/03/26 01:53:06;;;;;;;15.80;3.23;;;;;;;7.20;100.00;99863.50;692404;28;904;-60
2023/03/26 01:53:26;;;;;;;15.68;2.90;;;;;;;7.16;100.00;99871.31;690252;28;1256;-60
2023/03/26 01:53:47;;;;;;;15.17;2.90;;;;;;;7.11;100.00;99865.25;688888;28;1168;-60
2023/03/26 01:54:12;;;;;;;14.32;2.90;;;;;;;7.05;100.00;99870.47;693442;28;1151;-60
2023/03/26 01:54:32;;;;;;;14.35;3.15;;;;;;;7.04;100.00;99871.34;692295;28;825;-61
2023/03/26 01:54:55;;;;;;;14.70;3.05;;;;;;;7.01;100.00;99870.50;689724;28;4339;-60
2023/03/26 01:55:19;;;;;;;18.00;3.30;;;;;;;6.97;100.00;99864.44;690151;28;1326;-60
2023/03/26 01:56:02;;;;;;;16.67;3.20;;;;;;;6.99;100.00;99873.09;691118;28;1011;-60
2023/03/26 01:56:42;;;;;;;14.20;3.10;;;;;;;7.00;100.00;99856.63;693580;28;1243;-60
2023/03/26 01:57:19;;;;;;;14.27;3.03;;;;;;;6.97;100.00;99869.66;695101;28;1186;-60
2023/03/26 01:57:58;;;;;;;16.52;3.53;;;;;;;6.94;100.00;99865.31;693792;28;1186;-60
2023/03/26 01:58:33;;;;;;;16.50;3.65;;;;;;;6.91;100.00;99867.03;691668;28;5151;-59
2023/03/26 01:59:03;;;;;;;16.30;3.00;;;;;;;6.89;100.00;99866.19;695395;28;908;-59
2023/03/26 01:59:45;;;;;;;14.85;3.28;;;;;;;6.86;100.00;99871.41;696460;28;857;-60